sensor_id;sensor_type;location;lat;lon;timestamp;pressure;altitude;pressure_sealevel;temperature;humidity
75513;BME280;64090;49.770;18.760;2022-10-16T00:01:09;97805.14;;;13.59;69.86
75513;BME280;64090;49.770;18.760;2022-10-16T00:03:38;97806.40;;;13.56;69.73
75513;BME280;64090;49.770;18.760;2022-10-16T00:06:06;97803.95;;;13.52;69.86
75513;BME280;64090;49.770;18.760;2022-10-16T00:08:33;97808.29;;;13.46;70.13
75513;BME280;64090;49.770;18.760;2022-10-16T00:11:06;97813.84;;;13.45;70.47
75513;BME280;64090;49.770;18.760;2022-10-16T00:13:34;97819.30;;;13.47;70.44
75513;BME280;64090;49.770;18.760;2022-10-16T00:16:01;97822.64;;;13.48;70.65
75513;BME280;64090;49.770;18.760;2022-10-16T00:18:28;97825.26;;;13.50;70.54
75513;BME280;64090;49.770;18.760;2022-10-16T00:21:02;97827.27;;;13.52;70.68
75513;BME280;64090;49.770;18.760;2022-10-16T00:23:29;97827.05;;;13.54;70.75
75513;BME280;64090;49.770;18.760;2022-10-16T00:26:02;97834.65;;;13.58;70.60
75513;BME280;64090;49.770;18.760;2022-10-16T00:28:29;97831.25;;;13.65;70.63
75513;BME280;64090;49.770;18.760;2022-10-16T00:30:56;97825.23;;;13.69;70.48
75513;BME280;64090;49.770;18.760;2022-10-16T00:33:24;97822.28;;;13.72;70.21
75513;BME280;64090;49.770;18.760;2022-10-16T00:35:50;97822.75;;;13.74;70.31
75513;BME280;64090;49.770;18.760;2022-10-16T00:38:17;97823.41;;;13.74;70.24
75513;BME280;64090;49.770;18.760;2022-10-16T00:40:44;97830.49;;;13.74;70.32
75513;BME280;64090;49.770;18.760;2022-10-16T00:46:29;97837.27;;;13.77;70.30
75513;BME280;64090;49.770;18.760;2022-10-16T00:49:12;97836.37;;;13.77;70.40
75513;BME280;64090;49.770;18.760;2022-10-16T00:51:45;97830.05;;;13.77;70.32
75513;BME280;64090;49.770;18.760;2022-10-16T00:54:27;97833.66;;;13.78;70.33
75513;BME280;64090;49.770;18.760;2022-10-16T00:56:57;97836.15;;;13.79;70.29
75513;BME280;64090;49.770;18.760;2022-10-16T00:59:39;97835.09;;;13.82;70.24
75513;BME280;64090;49.770;18.760;2022-10-16T01:02:09;97833.98;;;13.84;70.44
75513;BME280;64090;49.770;18.760;2022-10-16T01:04:39;97833.88;;;13.83;70.17
75513;BME280;64090;49.770;18.760;2022-10-16T01:07:32;97838.97;;;13.84;70.10
75513;BME280;64090;49.770;18.760;2022-10-16T01:10:40;97838.98;;;13.83;70.28
75513;BME280;64090;49.770;18.760;2022-10-16T01:13:17;97840.57;;;13.80;70.29
75513;BME280;64090;49.770;18.760;2022-10-16T01:15:58;97836.81;;;13.83;70.33
75513;BME280;64090;49.770;18.760;2022-10-16T01:18:46;97839.48;;;13.86;70.28
75513;BME280;64090;49.770;18.760;2022-10-16T01:21:28;97837.68;;;13.85;70.37
75513;BME280;64090;49.770;18.760;2022-10-16T01:24:01;97838.77;;;13.84;70.32
75513;BME280;64090;49.770;18.760;2022-10-16T01:26:50;97832.27;;;13.80;70.48
75513;BME280;64090;49.770;18.760;2022-10-16T01:32:10;97827.71;;;13.80;70.58
75513;BME280;64090;49.770;18.760;2022-10-16T01:34:44;97824.45;;;13.82;70.66
75513;BME280;64090;49.770;18.760;2022-10-16T01:37:22;97826.42;;;13.82;70.61
75513;BME280;64090;49.770;18.760;2022-10-16T01:39:50;97820.77;;;13.79;70.52
75513;BME280;64090;49.770;18.760;2022-10-16T01:42:27;97821.08;;;13.77;70.62
75513;BME280;64090;49.770;18.760;2022-10-16T01:44:57;97828.63;;;13.75;70.70
75513;BME280;64090;49.770;18.760;2022-10-16T01:47:26;97822.92;;;13.75;70.68
75513;BME280;64090;49.770;18.760;2022-10-16T01:49:55;97825.46;;;13.75;70.71
75513;BME280;64090;49.770;18.760;2022-10-16T01:52:26;97832.38;;;13.74;70.59
75513;BME280;64090;49.770;18.760;2022-10-16T01:54:56;97838.52;;;13.73;70.53
75513;BME280;64090;49.770;18.760;2022-10-16T01:57:25;97837.71;;;13.67;70.69
75513;BME280;64090;49.770;18.760;2022-10-16T01:59:56;97842.65;;;13.60;70.86
75513;BME280;64090;49.770;18.760;2022-10-16T02:02:26;97842.82;;;13.56;71.05
75513;BME280;64090;49.770;18.760;2022-10-16T02:04:58;97842.79;;;13.50;71.31
75513;BME280;64090;49.770;18.760;2022-10-16T02:07:27;97842.01;;;13.43;71.28
75513;BME280;64090;49.770;18.760;2022-10-16T02:09:54;97848.12;;;13.35;71.27
75513;BME280;64090;49.770;18.760;2022-10-16T02:12:26;97848.50;;;13.29;71.58
75513;BME280;64090;49.770;18.760;2022-10-16T02:14:54;97851.72;;;13.25;71.75
75513;BME280;64090;49.770;18.760;2022-10-16T02:17:22;97854.17;;;13.21;71.91
75513;BME280;64090;49.770;18.760;2022-10-16T02:19:51;97861.91;;;13.18;72.18
75513;BME280;64090;49.770;18.760;2022-10-16T02:22:28;97862.64;;;13.14;72.35
75513;BME280;64090;49.770;18.760;2022-10-16T02:30:10;97864.70;;;13.05;72.46
75513;BME280;64090;49.770;18.760;2022-10-16T02:32:42;97868.05;;;13.00;72.45
75513;BME280;64090;49.770;18.760;2022-10-16T02:35:12;97864.10;;;12.98;72.75
75513;BME280;64090;49.770;18.760;2022-10-16T02:37:40;97865.92;;;12.95;72.79
75513;BME280;64090;49.770;18.760;2022-10-16T02:40:08;97865.10;;;12.91;72.79
75513;BME280;64090;49.770;18.760;2022-10-16T02:42:36;97869.14;;;12.87;73.02
75513;BME280;64090;49.770;18.760;2022-10-16T02:45:08;97870.30;;;12.86;73.11
75513;BME280;64090;49.770;18.760;2022-10-16T02:47:35;97875.26;;;12.87;73.32
75513;BME280;64090;49.770;18.760;2022-10-16T02:50:02;97879.03;;;12.88;73.14
75513;BME280;64090;49.770;18.760;2022-10-16T02:52:29;97881.13;;;12.87;73.38
75513;BME280;64090;49.770;18.760;2022-10-16T02:54:56;97881.05;;;12.85;73.27
75513;BME280;64090;49.770;18.760;2022-10-16T02:57:22;97878.00;;;12.83;73.44
75513;BME280;64090;49.770;18.760;2022-10-16T02:59:49;97876.20;;;12.82;73.25
75513;BME280;64090;49.770;18.760;2022-10-16T03:02:16;97874.31;;;12.79;73.31
75513;BME280;64090;49.770;18.760;2022-10-16T03:04:43;97877.24;;;12.78;73.30
75513;BME280;64090;49.770;18.760;2022-10-16T03:07:09;97872.95;;;12.75;73.72
75513;BME280;64090;49.770;18.760;2022-10-16T03:09:36;97871.13;;;12.73;73.78
75513;BME280;64090;49.770;18.760;2022-10-16T03:12:03;97877.13;;;12.72;73.76
75513;BME280;64090;49.770;18.760;2022-10-16T03:14:30;97877.59;;;12.70;73.49
75513;BME280;64090;49.770;18.760;2022-10-16T03:16:56;97880.89;;;12.67;73.49
75513;BME280;64090;49.770;18.760;2022-10-16T03:19:23;97884.02;;;12.66;73.68
75513;BME280;64090;49.770;18.760;2022-10-16T03:21:49;97885.04;;;12.68;74.07
75513;BME280;64090;49.770;18.760;2022-10-16T03:24:16;97886.48;;;12.70;73.95
75513;BME280;64090;49.770;18.760;2022-10-16T03:26:43;97887.95;;;12.72;73.98
75513;BME280;64090;49.770;18.760;2022-10-16T03:29:09;97888.15;;;12.73;74.11
75513;BME280;64090;49.770;18.760;2022-10-16T03:31:36;97896.42;;;12.77;73.81
75513;BME280;64090;49.770;18.760;2022-10-16T03:34:02;97898.91;;;12.79;73.81
75513;BME280;64090;49.770;18.760;2022-10-16T03:36:29;97891.23;;;12.78;73.97
75513;BME280;64090;49.770;18.760;2022-10-16T03:38:56;97896.49;;;12.79;73.84
75513;BME280;64090;49.770;18.760;2022-10-16T03:41:22;97896.00;;;12.79;73.65
75513;BME280;64090;49.770;18.760;2022-10-16T03:43:49;97893.40;;;12.82;73.62
75513;BME280;64090;49.770;18.760;2022-10-16T03:46:16;97895.48;;;12.82;73.70
75513;BME280;64090;49.770;18.760;2022-10-16T03:48:43;97893.95;;;12.86;73.64
75513;BME280;64090;49.770;18.760;2022-10-16T03:51:09;97902.48;;;12.86;73.71
75513;BME280;64090;49.770;18.760;2022-10-16T03:53:36;97898.61;;;12.83;73.77
75513;BME280;64090;49.770;18.760;2022-10-16T03:56:02;97896.02;;;12.82;73.57
75513;BME280;64090;49.770;18.760;2022-10-16T03:58:29;97891.36;;;12.80;73.50
75513;BME280;64090;49.770;18.760;2022-10-16T04:00:56;97896.94;;;12.79;73.50
75513;BME280;64090;49.770;18.760;2022-10-16T04:03:22;97892.70;;;12.82;73.56
75513;BME280;64090;49.770;18.760;2022-10-16T04:05:49;97894.41;;;12.84;73.68
75513;BME280;64090;49.770;18.760;2022-10-16T04:08:16;97893.85;;;12.88;73.39
75513;BME280;64090;49.770;18.760;2022-10-16T04:10:43;97896.85;;;12.93;73.24
75513;BME280;64090;49.770;18.760;2022-10-16T04:13:11;97895.53;;;12.94;73.22
75513;BME280;64090;49.770;18.760;2022-10-16T04:15:38;97900.50;;;12.99;73.19
75513;BME280;64090;49.770;18.760;2022-10-16T04:18:05;97895.70;;;13.04;72.96
75513;BME280;64090;49.770;18.760;2022-10-16T04:20:33;97899.07;;;13.05;72.92
75513;BME280;64090;49.770;18.760;2022-10-16T04:23:00;97902.17;;;13.06;72.63
75513;BME280;64090;49.770;18.760;2022-10-16T04:25:26;97902.52;;;13.05;72.67
75513;BME280;64090;49.770;18.760;2022-10-16T04:27:54;97909.79;;;13.03;72.44
75513;BME280;64090;49.770;18.760;2022-10-16T04:30:21;97910.09;;;13.03;72.47
75513;BME280;64090;49.770;18.760;2022-10-16T04:32:49;97907.70;;;13.04;72.45
75513;BME280;64090;49.770;18.760;2022-10-16T04:35:17;97905.80;;;13.05;72.60
75513;BME280;64090;49.770;18.760;2022-10-16T04:37:44;97911.23;;;13.04;72.32
75513;BME280;64090;49.770;18.760;2022-10-16T04:40:11;97911.69;;;13.06;72.23
75513;BME280;64090;49.770;18.760;2022-10-16T04:42:38;97913.45;;;13.08;72.04
75513;BME280;64090;49.770;18.760;2022-10-16T04:45:05;97911.95;;;13.11;71.99
75513;BME280;64090;49.770;18.760;2022-10-16T04:47:32;97913.24;;;13.14;72.03
75513;BME280;64090;49.770;18.760;2022-10-16T04:49:59;97913.14;;;13.16;72.00
75513;BME280;64090;49.770;18.760;2022-10-16T04:52:27;97911.58;;;13.17;71.82
75513;BME280;64090;49.770;18.760;2022-10-16T04:54:54;97906.34;;;13.19;71.64
75513;BME280;64090;49.770;18.760;2022-10-16T04:57:22;97907.08;;;13.18;71.56
75513;BME280;64090;49.770;18.760;2022-10-16T04:59:49;97909.37;;;13.20;71.56
75513;BME280;64090;49.770;18.760;2022-10-16T05:02:16;97911.67;;;13.25;71.55
75513;BME280;64090;49.770;18.760;2022-10-16T05:04:43;97908.80;;;13.29;71.46
75513;BME280;64090;49.770;18.760;2022-10-16T05:07:09;97913.81;;;13.34;71.04
75513;BME280;64090;49.770;18.760;2022-10-16T05:09:36;97919.77;;;13.38;70.84
75513;BME280;64090;49.770;18.760;2022-10-16T05:12:03;97918.52;;;13.42;70.71
75513;BME280;64090;49.770;18.760;2022-10-16T05:14:29;97915.66;;;13.43;70.68
75513;BME280;64090;49.770;18.760;2022-10-16T05:16:57;97915.68;;;13.46;70.70
75513;BME280;64090;49.770;18.760;2022-10-16T05:19:23;97919.80;;;13.48;70.69
75513;BME280;64090;49.770;18.760;2022-10-16T05:21:54;97925.14;;;13.50;70.59
75513;BME280;64090;49.770;18.760;2022-10-16T05:24:20;97921.95;;;13.50;70.46
75513;BME280;64090;49.770;18.760;2022-10-16T05:26:47;97924.93;;;13.50;70.43
75513;BME280;64090;49.770;18.760;2022-10-16T05:29:14;97928.17;;;13.51;70.45
75513;BME280;64090;49.770;18.760;2022-10-16T05:31:40;97931.78;;;13.52;70.43
75513;BME280;64090;49.770;18.760;2022-10-16T05:34:07;97935.41;;;13.55;70.44
75513;BME280;64090;49.770;18.760;2022-10-16T05:36:34;97936.51;;;13.60;70.39
75513;BME280;64090;49.770;18.760;2022-10-16T05:39:01;97933.46;;;13.61;70.23
75513;BME280;64090;49.770;18.760;2022-10-16T05:41:27;97934.44;;;13.63;70.09
75513;BME280;64090;49.770;18.760;2022-10-16T05:43:54;97942.91;;;13.66;69.91
75513;BME280;64090;49.770;18.760;2022-10-16T05:46:21;97936.89;;;13.68;69.80
75513;BME280;64090;49.770;18.760;2022-10-16T05:48:47;97939.77;;;13.72;69.53
75513;BME280;64090;49.770;18.760;2022-10-16T05:51:14;97944.08;;;13.78;69.66
75513;BME280;64090;49.770;18.760;2022-10-16T05:53:41;97946.17;;;13.80;69.72
75513;BME280;64090;49.770;18.760;2022-10-16T05:56:10;97945.14;;;13.83;69.46
75513;BME280;64090;49.770;18.760;2022-10-16T05:58:38;97943.05;;;13.94;69.19
75513;BME280;64090;49.770;18.760;2022-10-16T06:01:10;97941.91;;;14.09;68.61
75513;BME280;64090;49.770;18.760;2022-10-16T06:03:38;97950.50;;;14.27;68.16
75513;BME280;64090;49.770;18.760;2022-10-16T06:06:16;97954.33;;;14.39;67.89
75513;BME280;64090;49.770;18.760;2022-10-16T06:08:44;97963.78;;;14.50;67.56
75513;BME280;64090;49.770;18.760;2022-10-16T06:11:17;97968.04;;;14.64;67.55
75513;BME280;64090;49.770;18.760;2022-10-16T06:13:44;97968.52;;;14.79;66.90
75513;BME280;64090;49.770;18.760;2022-10-16T06:16:12;97972.10;;;14.95;66.42
75513;BME280;64090;49.770;18.760;2022-10-16T06:18:39;97976.70;;;15.11;65.99
75513;BME280;64090;49.770;18.760;2022-10-16T06:21:08;97977.38;;;15.29;65.59
75513;BME280;64090;49.770;18.760;2022-10-16T06:23:36;97983.61;;;15.47;65.21
75513;BME280;64090;49.770;18.760;2022-10-16T06:26:07;97982.81;;;15.66;64.74
75513;BME280;64090;49.770;18.760;2022-10-16T06:28:35;97979.61;;;15.85;64.19
75513;BME280;64090;49.770;18.760;2022-10-16T06:31:03;97981.02;;;16.01;63.83
75513;BME280;64090;49.770;18.760;2022-10-16T06:33:34;97981.52;;;16.18;63.22
75513;BME280;64090;49.770;18.760;2022-10-16T06:38:32;97981.83;;;16.59;62.62
75513;BME280;64090;49.770;18.760;2022-10-16T06:40:59;97986.92;;;16.79;60.98
75513;BME280;64090;49.770;18.760;2022-10-16T06:43:26;97994.19;;;17.00;61.18
75513;BME280;64090;49.770;18.760;2022-10-16T06:45:56;97996.92;;;17.08;60.63
75513;BME280;64090;49.770;18.760;2022-10-16T06:48:24;97999.55;;;17.19;59.78
75513;BME280;64090;49.770;18.760;2022-10-16T06:51:17;98004.33;;;17.25;60.07
75513;BME280;64090;49.770;18.760;2022-10-16T06:53:45;98009.17;;;17.38;59.73
75513;BME280;64090;49.770;18.760;2022-10-16T06:56:30;98007.69;;;17.39;59.41
75513;BME280;64090;49.770;18.760;2022-10-16T06:58:58;98016.67;;;17.33;59.72
75513;BME280;64090;49.770;18.760;2022-10-16T07:01:26;98017.08;;;17.22;59.66
75513;BME280;64090;49.770;18.760;2022-10-16T07:03:53;98021.60;;;17.17;59.65
75513;BME280;64090;49.770;18.760;2022-10-16T07:06:22;98026.42;;;17.09;59.88
75513;BME280;64090;49.770;18.760;2022-10-16T07:08:49;98033.92;;;17.06;59.84
75513;BME280;64090;49.770;18.760;2022-10-16T07:11:18;98030.67;;;17.11;60.03
75513;BME280;64090;49.770;18.760;2022-10-16T07:13:46;98024.01;;;17.20;59.61
75513;BME280;64090;49.770;18.760;2022-10-16T07:16:26;98026.06;;;17.24;59.73
75513;BME280;64090;49.770;18.760;2022-10-16T07:18:54;98025.00;;;17.27;59.67
75513;BME280;64090;49.770;18.760;2022-10-16T07:21:28;98029.67;;;17.27;59.39
75513;BME280;64090;49.770;18.760;2022-10-16T07:23:58;98028.29;;;17.24;59.46
75513;BME280;64090;49.770;18.760;2022-10-16T07:26:27;98036.02;;;17.24;59.58
75513;BME280;64090;49.770;18.760;2022-10-16T07:28:54;98041.44;;;17.24;59.59
75513;BME280;64090;49.770;18.760;2022-10-16T07:31:21;98046.09;;;17.19;59.25
75513;BME280;64090;49.770;18.760;2022-10-16T07:33:49;98046.42;;;17.23;59.44
75513;BME280;64090;49.770;18.760;2022-10-16T07:36:17;98047.41;;;17.27;59.23
75513;BME280;64090;49.770;18.760;2022-10-16T07:38:44;98047.77;;;17.35;59.71
75513;BME280;64090;49.770;18.760;2022-10-16T07:41:13;98047.59;;;17.49;59.35
75513;BME280;64090;49.770;18.760;2022-10-16T07:43:48;98044.98;;;17.61;59.13
75513;BME280;64090;49.770;18.760;2022-10-16T07:46:15;98047.67;;;17.69;58.98
75513;BME280;64090;49.770;18.760;2022-10-16T07:48:43;98049.55;;;17.78;59.16
75513;BME280;64090;49.770;18.760;2022-10-16T07:51:16;98053.53;;;17.87;59.02
75513;BME280;64090;49.770;18.760;2022-10-16T07:53:44;98049.86;;;17.93;58.55
75513;BME280;64090;49.770;18.760;2022-10-16T07:56:11;98054.48;;;17.96;58.03
75513;BME280;64090;49.770;18.760;2022-10-16T07:58:38;98057.22;;;17.99;57.98
75513;BME280;64090;49.770;18.760;2022-10-16T08:01:11;98063.57;;;18.02;57.67
75513;BME280;64090;49.770;18.760;2022-10-16T08:03:41;98065.33;;;17.98;57.36
75513;BME280;64090;49.770;18.760;2022-10-16T08:06:08;98066.95;;;17.95;57.56
75513;BME280;64090;49.770;18.760;2022-10-16T08:08:34;98070.11;;;17.97;57.84
75513;BME280;64090;49.770;18.760;2022-10-16T08:11:01;98069.20;;;18.01;57.95
75513;BME280;64090;49.770;18.760;2022-10-16T08:13:30;98060.35;;;18.01;57.51
75513;BME280;64090;49.770;18.760;2022-10-16T08:15:57;98072.27;;;17.98;57.52
75513;BME280;64090;49.770;18.760;2022-10-16T08:18:24;98071.32;;;17.96;57.67
75513;BME280;64090;49.770;18.760;2022-10-16T08:20:58;98071.12;;;17.94;57.56
75513;BME280;64090;49.770;18.760;2022-10-16T08:23:27;98075.23;;;17.91;57.48
75513;BME280;64090;49.770;18.760;2022-10-16T08:25:55;98073.68;;;17.92;57.51
75513;BME280;64090;49.770;18.760;2022-10-16T08:28:23;98079.89;;;17.94;57.54
75513;BME280;64090;49.770;18.760;2022-10-16T08:30:50;98078.85;;;18.03;57.39
75513;BME280;64090;49.770;18.760;2022-10-16T08:33:16;98079.46;;;18.07;57.26
75513;BME280;64090;49.770;18.760;2022-10-16T08:35:50;98079.95;;;18.13;57.41
75513;BME280;64090;49.770;18.760;2022-10-16T08:38:17;98081.96;;;18.23;56.94
75513;BME280;64090;49.770;18.760;2022-10-16T08:40:44;98084.85;;;18.29;56.93
75513;BME280;64090;49.770;18.760;2022-10-16T08:48:56;98078.52;;;18.34;56.64
75513;BME280;64090;49.770;18.760;2022-10-16T08:51:33;98075.98;;;18.33;56.36
75513;BME280;64090;49.770;18.760;2022-10-16T08:56:41;98079.94;;;18.27;56.52
75513;BME280;64090;49.770;18.760;2022-10-16T08:59:13;98078.17;;;18.33;56.76
75513;BME280;64090;49.770;18.760;2022-10-16T09:01:44;98076.64;;;18.41;56.42
75513;BME280;64090;49.770;18.760;2022-10-16T09:04:44;98077.48;;;18.48;55.94
75513;BME280;64090;49.770;18.760;2022-10-16T09:08:02;98083.91;;;18.65;56.20
75513;BME280;64090;49.770;18.760;2022-10-16T09:10:58;98084.20;;;18.94;56.03
75513;BME280;64090;49.770;18.760;2022-10-16T09:16:44;98086.73;;;19.43;54.12
75513;BME280;64090;49.770;18.760;2022-10-16T09:19:25;98090.42;;;19.58;54.06
75513;BME280;64090;49.770;18.760;2022-10-16T09:21:59;98091.79;;;19.74;53.74
75513;BME280;64090;49.770;18.760;2022-10-16T09:24:29;98094.09;;;19.84;53.26
75513;BME280;64090;49.770;18.760;2022-10-16T09:26:56;98090.64;;;19.89;52.81
75513;BME280;64090;49.770;18.760;2022-10-16T09:29:23;98091.89;;;19.92;52.74
75513;BME280;64090;49.770;18.760;2022-10-16T09:31:54;98093.48;;;19.87;52.23
75513;BME280;64090;49.770;18.760;2022-10-16T09:36:53;98101.17;;;19.79;52.69
75513;BME280;64090;49.770;18.760;2022-10-16T09:39:20;98102.30;;;19.78;52.57
75513;BME280;64090;49.770;18.760;2022-10-16T09:41:47;98107.70;;;19.80;52.55
75513;BME280;64090;49.770;18.760;2022-10-16T09:44:29;98109.14;;;19.76;52.58
75513;BME280;64090;49.770;18.760;2022-10-16T09:50:15;98113.46;;;19.72;52.72
75513;BME280;64090;49.770;18.760;2022-10-16T09:52:45;98119.98;;;19.76;52.66
75513;BME280;64090;49.770;18.760;2022-10-16T09:55:15;98117.97;;;19.81;52.85
75513;BME280;64090;49.770;18.760;2022-10-16T09:57:52;98122.23;;;19.81;52.66
75513;BME280;64090;49.770;18.760;2022-10-16T10:00:21;98121.31;;;19.80;52.56
75513;BME280;64090;49.770;18.760;2022-10-16T10:02:48;98123.13;;;19.83;52.55
75513;BME280;64090;49.770;18.760;2022-10-16T10:05:22;98123.09;;;19.85;52.80
75513;BME280;64090;49.770;18.760;2022-10-16T10:08:01;98125.34;;;19.89;52.33
75513;BME280;64090;49.770;18.760;2022-10-16T10:10:34;98126.58;;;19.94;52.40
75513;BME280;64090;49.770;18.760;2022-10-16T10:13:03;98131.61;;;20.02;52.66
75513;BME280;64090;49.770;18.760;2022-10-16T10:15:34;98133.63;;;20.04;52.36
75513;BME280;64090;49.770;18.760;2022-10-16T10:18:18;98132.79;;;20.07;52.05
75513;BME280;64090;49.770;18.760;2022-10-16T10:20:57;98134.42;;;20.15;52.18
75513;BME280;64090;49.770;18.760;2022-10-16T10:23:25;98125.58;;;20.22;52.46
75513;BME280;64090;49.770;18.760;2022-10-16T10:31:38;98120.23;;;20.40;52.18
75513;BME280;64090;49.770;18.760;2022-10-16T10:39:40;98129.24;;;20.63;51.50
75513;BME280;64090;49.770;18.760;2022-10-16T10:45:44;98128.21;;;20.64;51.36
75513;BME280;64090;49.770;18.760;2022-10-16T10:48:20;98126.52;;;20.66;51.35
75513;BME280;64090;49.770;18.760;2022-10-16T10:50:53;98134.06;;;20.74;51.32
75513;BME280;64090;49.770;18.760;2022-10-16T10:59:15;98130.74;;;21.00;50.85
75513;BME280;64090;49.770;18.760;2022-10-16T11:08:03;98129.28;;;21.27;50.14
75513;BME280;64090;49.770;18.760;2022-10-16T11:10:53;98124.10;;;21.38;50.53
75513;BME280;64090;49.770;18.760;2022-10-16T11:13:42;98127.63;;;21.39;50.01
75513;BME280;64090;49.770;18.760;2022-10-16T11:16:23;98132.34;;;21.35;50.29
75513;BME280;64090;49.770;18.760;2022-10-16T11:18:59;98138.54;;;21.38;50.14
75513;BME280;64090;49.770;18.760;2022-10-16T11:21:34;98139.27;;;21.40;50.24
75513;BME280;64090;49.770;18.760;2022-10-16T11:24:22;98138.55;;;21.43;50.45
75513;BME280;64090;49.770;18.760;2022-10-16T11:26:50;98140.09;;;21.44;50.57
75513;BME280;64090;49.770;18.760;2022-10-16T11:29:26;98140.20;;;21.48;50.55
75513;BME280;64090;49.770;18.760;2022-10-16T11:32:05;98142.11;;;21.51;50.48
75513;BME280;64090;49.770;18.760;2022-10-16T11:34:42;98145.00;;;21.57;50.79
75513;BME280;64090;49.770;18.760;2022-10-16T11:37:14;98146.07;;;21.57;50.52
75513;BME280;64090;49.770;18.760;2022-10-16T11:39:44;98151.94;;;21.62;50.49
75513;BME280;64090;49.770;18.760;2022-10-16T11:42:31;98151.17;;;21.57;50.34
75513;BME280;64090;49.770;18.760;2022-10-16T11:47:44;98147.20;;;21.54;50.68
75513;BME280;64090;49.770;18.760;2022-10-16T11:50:45;98144.33;;;21.52;50.79
75513;BME280;64090;49.770;18.760;2022-10-16T11:56:03;98143.11;;;21.42;50.67
75513;BME280;64090;49.770;18.760;2022-10-16T11:58:40;98137.73;;;21.29;50.55
75513;BME280;64090;49.770;18.760;2022-10-16T12:04:25;98133.67;;;20.92;51.45
75513;BME280;64090;49.770;18.760;2022-10-16T12:07:06;98130.80;;;20.80;51.75
75513;BME280;64090;49.770;18.760;2022-10-16T12:09:37;98131.13;;;20.62;52.02
75513;BME280;64090;49.770;18.760;2022-10-16T12:12:22;98133.33;;;20.43;52.34
75513;BME280;64090;49.770;18.760;2022-10-16T12:15:00;98138.91;;;20.23;52.74
75513;BME280;64090;49.770;18.760;2022-10-16T12:17:48;98142.00;;;20.06;53.21
75513;BME280;64090;49.770;18.760;2022-10-16T12:22:48;98138.64;;;19.75;53.95
75513;BME280;64090;49.770;18.760;2022-10-16T12:25:37;98143.35;;;19.62;53.94
75513;BME280;64090;49.770;18.760;2022-10-16T12:30:40;98148.35;;;19.52;54.86
75513;BME280;64090;49.770;18.760;2022-10-16T12:33:29;98149.48;;;19.62;54.58
75513;BME280;64090;49.770;18.760;2022-10-16T12:35:58;98155.14;;;19.84;54.18
75513;BME280;64090;49.770;18.760;2022-10-16T12:38:26;98158.65;;;20.13;53.94
75513;BME280;64090;49.770;18.760;2022-10-16T12:41:03;98161.33;;;20.38;53.52
75513;BME280;64090;49.770;18.760;2022-10-16T12:43:45;98160.27;;;20.51;53.06
75513;BME280;64090;49.770;18.760;2022-10-16T12:48:40;98168.66;;;20.76;53.29
75513;BME280;64090;49.770;18.760;2022-10-16T12:54:14;98163.40;;;20.74;52.75
75513;BME280;64090;49.770;18.760;2022-10-16T13:00:02;98166.23;;;20.67;53.42
75513;BME280;64090;49.770;18.760;2022-10-16T13:08:22;98161.41;;;20.66;53.36
75513;BME280;64090;49.770;18.760;2022-10-16T13:19:26;98165.30;;;20.93;52.48
75513;BME280;64090;49.770;18.760;2022-10-16T13:30:01;98162.27;;;20.65;53.46
75513;BME280;64090;49.770;18.760;2022-10-16T13:32:29;98163.98;;;20.46;53.70
75513;BME280;64090;49.770;18.760;2022-10-16T13:34:57;98168.66;;;20.29;54.25
75513;BME280;64090;49.770;18.760;2022-10-16T13:37:24;98173.66;;;20.14;54.51
75513;BME280;64090;49.770;18.760;2022-10-16T13:40:04;98175.80;;;19.99;54.76
75513;BME280;64090;49.770;18.760;2022-10-16T13:42:34;98171.95;;;19.81;54.97
75513;BME280;64090;49.770;18.760;2022-10-16T13:45:00;98170.50;;;19.71;55.26
75513;BME280;64090;49.770;18.760;2022-10-16T13:47:29;98172.38;;;19.66;55.41
75513;BME280;64090;49.770;18.760;2022-10-16T13:50:01;98171.15;;;19.51;56.12
75513;BME280;64090;49.770;18.760;2022-10-16T13:52:29;98169.67;;;19.35;56.24
75513;BME280;64090;49.770;18.760;2022-10-16T13:54:56;98167.09;;;19.18;56.52
75513;BME280;64090;49.770;18.760;2022-10-16T13:57:28;98169.21;;;19.07;56.67
75513;BME280;64090;49.770;18.760;2022-10-16T13:59:55;98171.71;;;18.99;57.24
75513;BME280;64090;49.770;18.760;2022-10-16T14:02:25;98172.52;;;19.00;57.05
75513;BME280;64090;49.770;18.760;2022-10-16T14:04:54;98176.09;;;19.01;57.15
75513;BME280;64090;49.770;18.760;2022-10-16T14:07:24;98177.42;;;19.01;57.10
75513;BME280;64090;49.770;18.760;2022-10-16T14:09:53;98174.69;;;19.01;57.35
75513;BME280;64090;49.770;18.760;2022-10-16T14:12:21;98172.29;;;18.99;57.21
75513;BME280;64090;49.770;18.760;2022-10-16T14:14:54;98172.66;;;18.95;57.25
75513;BME280;64090;49.770;18.760;2022-10-16T14:17:27;98178.92;;;18.88;57.28
75513;BME280;64090;49.770;18.760;2022-10-16T14:20:00;98179.16;;;18.86;57.60
75513;BME280;64090;49.770;18.760;2022-10-16T14:22:34;98187.77;;;18.81;57.69
75513;BME280;64090;49.770;18.760;2022-10-16T14:25:21;98192.36;;;18.75;57.73
75513;BME280;64090;49.770;18.760;2022-10-16T14:30:33;98196.73;;;18.66;58.14
75513;BME280;64090;49.770;18.760;2022-10-16T14:33:06;98196.08;;;18.62;58.12
75513;BME280;64090;49.770;18.760;2022-10-16T14:35:46;98197.93;;;18.57;58.50
75513;BME280;64090;49.770;18.760;2022-10-16T14:38:19;98206.23;;;18.51;58.60
75513;BME280;64090;49.770;18.760;2022-10-16T14:40:48;98206.56;;;18.45;58.80
75513;BME280;64090;49.770;18.760;2022-10-16T14:43:22;98207.42;;;18.38;59.13
75513;BME280;64090;49.770;18.760;2022-10-16T14:45:54;98205.80;;;18.28;59.25
75513;BME280;64090;49.770;18.760;2022-10-16T14:48:22;98211.42;;;18.19;59.30
75513;BME280;64090;49.770;18.760;2022-10-16T14:50:49;98215.02;;;18.10;59.58
75513;BME280;64090;49.770;18.760;2022-10-16T14:53:15;98220.57;;;17.99;59.87
75513;BME280;64090;49.770;18.760;2022-10-16T14:55:42;98211.14;;;17.88;60.22